Pays
Station

 

Conditions  météo  pour  Monastir-Skanes  -  Tunisie    Tunisie

  
21 °C
    
 
 

METAR pour Monastir-Skanes :

DTTM 042000Z AUTO 12004KT 060V180 NCD 21/18 Q1013

 

Voici le bulletin pour Monastir-Skanes - Tunisie.
 
Le bulletin a été fait il y a 325 heures et 56 minutes, à 20:00 UTC .
Le vent soufflait à la vitesse de 2.1 mètres par seconde de Est/Sud-est (120°), variant entre Est/Nord-est (060°) et Sud (180°).
 
La température était de 21 °C, avec un point de rosée à 18 °C.
La pression atmosphérique était de 1013 hPa.
L'humidité relative était de 83.0%.
 

 
 
 

Pays :   A   B   C   D   E   F   G   H   I   J   K   L   M   N   O   P   Q   R   S   T   U   V   W   Y   Z

 

Partenaires :  Info Météo avec Met'info
Météo Marine avec MeteoMarine.net
Infos Site  |  Infos Légales  |  Crédits  |  Confidentialité
Contactez-nous  |  Ajouter aux favoris
© 2013-2019 METAR - Tous droits réservés